createdAt,value
2019-04-25T00:02:15.851Z,11.40
2019-04-25T00:04:44.697Z,11.40
2019-04-25T00:07:13.545Z,11.40
2019-04-25T00:09:44.084Z,11.30
2019-04-25T00:12:13.089Z,11.20
2019-04-25T00:14:42.528Z,11.10
2019-04-25T00:17:11.460Z,11.20
2019-04-25T00:19:42.182Z,11.10
2019-04-25T00:22:12.513Z,11.30
2019-04-25T00:24:59.208Z,11.30
2019-04-25T00:27:28.053Z,11.20
2019-04-25T00:29:58.752Z,11.10
2019-04-25T00:32:27.584Z,10.90
2019-04-25T00:34:56.621Z,11.00
2019-04-25T00:37:25.380Z,10.90
2019-04-25T00:39:54.225Z,10.80
2019-04-25T00:42:23.268Z,10.80
2019-04-25T00:44:52.502Z,10.80
2019-04-25T00:47:21.664Z,10.80
2019-04-25T00:49:52.101Z,10.70
2019-04-25T00:52:21.154Z,10.70
2019-04-25T00:54:52.596Z,10.60
2019-04-25T00:57:22.284Z,10.60
2019-04-25T00:59:53.168Z,10.50
2019-04-25T01:02:24.497Z,10.60
2019-04-25T01:04:54.179Z,10.70
2019-04-25T01:07:23.028Z,10.70
2019-04-25T01:09:52.508Z,10.70
2019-04-25T01:12:22.664Z,10.70
2019-04-25T01:14:52.836Z,10.70
2019-04-25T01:17:22.951Z,10.70
2019-04-25T01:19:54.721Z,10.70
2019-04-25T01:22:23.233Z,10.70
2019-04-25T01:24:53.859Z,10.80
2019-04-25T01:27:23.451Z,10.80
2019-04-25T01:29:54.110Z,10.90
2019-04-25T01:32:24.389Z,10.90
2019-04-25T01:34:58.518Z,11.00
2019-04-25T01:37:43.713Z,11.00
2019-04-25T01:40:23.606Z,11.00
2019-04-25T01:42:59.890Z,11.10
2019-04-25T01:45:30.293Z,11.00
2019-04-25T01:47:59.025Z,11.00
2019-04-25T01:50:27.886Z,11.00
2019-04-25T01:52:56.787Z,11.00
2019-04-25T01:55:25.613Z,10.90
2019-04-25T01:57:55.072Z,10.90
2019-04-25T02:00:35.656Z,11.00
2019-04-25T02:03:05.572Z,11.00
2019-04-25T02:05:34.353Z,11.40
2019-04-25T02:08:05.789Z,11.50
2019-04-25T02:10:34.446Z,11.50
2019-04-25T02:13:07.840Z,11.30
2019-04-25T02:15:36.872Z,11.30
2019-04-25T02:18:05.669Z,11.30
2019-04-25T02:20:34.440Z,11.10
2019-04-25T02:23:04.179Z,11.10
2019-04-25T02:25:33.299Z,11.00
2019-04-25T02:28:03.148Z,10.90
2019-04-25T02:30:35.296Z,10.90
2019-04-25T02:33:08.794Z,10.80
2019-04-25T02:35:34.960Z,10.80
2019-04-25T02:38:08.289Z,10.80
2019-04-25T02:40:34.420Z,10.70
2019-04-25T02:43:07.574Z,10.70
2019-04-25T02:45:35.242Z,10.70
2019-04-25T02:48:24.114Z,10.60
2019-04-25T02:51:01.240Z,10.60
2019-04-25T02:53:37.791Z,10.60
2019-04-25T02:56:26.230Z,10.60
2019-04-25T02:58:36.929Z,10.70
2019-04-25T03:01:18.469Z,10.70
2019-04-25T03:03:38.742Z,10.60
2019-04-25T03:06:09.562Z,10.60
2019-04-25T03:08:37.955Z,10.60
2019-04-25T03:11:08.077Z,10.60
2019-04-25T03:13:37.420Z,10.70
2019-04-25T03:16:09.098Z,10.70
2019-04-25T03:18:47.176Z,10.70
2019-04-25T03:21:20.582Z,10.70
2019-04-25T03:23:50.012Z,10.70
2019-04-25T03:26:18.745Z,10.70
2019-04-25T03:28:47.509Z,10.80
2019-04-25T03:31:22.688Z,10.70
2019-04-25T03:33:46.728Z,10.70
2019-04-25T03:36:16.958Z,10.70
2019-04-25T03:38:46.028Z,10.70
2019-04-25T03:41:14.832Z,10.60
2019-04-25T03:43:44.516Z,10.60
2019-04-25T03:46:14.274Z,10.50
2019-04-25T03:48:44.113Z,10.50
2019-04-25T03:51:15.370Z,10.50
2019-04-25T03:53:43.976Z,10.50
2019-04-25T03:56:14.497Z,10.50
2019-04-25T03:58:43.919Z,10.50
2019-04-25T04:01:14.990Z,10.50
2019-04-25T04:03:43.971Z,10.50
2019-04-25T04:06:14.593Z,10.50
2019-04-25T04:08:44.296Z,10.70
2019-04-25T04:11:14.558Z,10.70
2019-04-25T04:13:44.151Z,10.60
2019-04-25T04:16:15.623Z,10.70
2019-04-25T04:18:46.046Z,10.80
2019-04-25T04:21:23.521Z,10.70
2019-04-25T04:23:54.488Z,10.70
2019-04-25T04:26:24.626Z,10.60
2019-04-25T04:28:53.412Z,10.60
2019-04-25T04:31:23.479Z,10.60
2019-04-25T04:33:53.090Z,10.50
2019-04-25T04:36:21.989Z,10.60
2019-04-25T04:38:50.781Z,10.70
2019-04-25T04:41:19.487Z,10.70
2019-04-25T04:43:48.302Z,10.80
2019-04-25T04:46:18.531Z,10.70
2019-04-25T04:48:47.444Z,10.80
2019-04-25T04:51:16.953Z,10.90
2019-04-25T04:53:45.761Z,10.90
2019-04-25T04:56:15.599Z,11.00
2019-04-25T04:58:45.171Z,11.00
2019-04-25T05:01:15.868Z,11.10
2019-04-25T05:03:54.024Z,11.20
2019-04-25T05:06:30.265Z,11.30
2019-04-25T05:09:09.881Z,11.40
2019-04-25T05:11:38.617Z,11.60
2019-04-25T05:14:07.377Z,11.60
2019-04-25T05:16:36.161Z,11.70
2019-04-25T05:19:05.136Z,11.80
2019-04-25T05:21:33.893Z,11.90
2019-04-25T05:24:04.139Z,11.90
2019-04-25T05:26:34.116Z,12.00
2019-04-25T05:29:04.653Z,12.10
2019-04-25T05:31:35.064Z,12.20
2019-04-25T05:34:03.868Z,12.30
2019-04-25T05:36:38.862Z,12.40
2019-04-25T05:39:09.762Z,12.50
2019-04-25T05:41:40.460Z,12.90
2019-04-25T05:44:09.280Z,13.10
2019-04-25T05:46:38.117Z,13.40
2019-04-25T05:49:08.310Z,13.50
2019-04-25T05:51:38.782Z,13.70
2019-04-25T05:54:08.958Z,13.70
2019-04-25T05:56:40.517Z,13.80
2019-04-25T05:59:09.412Z,13.90
2019-04-25T06:01:38.939Z,14.10
2019-04-25T06:04:08.592Z,14.20
2019-04-25T06:06:38.449Z,14.30
2019-04-25T06:09:15.693Z,14.40
2019-04-25T06:11:50.073Z,14.50
2019-04-25T06:14:21.803Z,14.60
2019-04-25T06:16:53.638Z,14.60
2019-04-25T06:19:39.343Z,14.70
2019-04-25T06:22:09.769Z,15.00
2019-04-25T06:24:44.309Z,15.10
2019-04-25T06:27:15.073Z,15.20
2019-04-25T06:29:57.327Z,15.30
2019-04-25T06:32:16.701Z,15.20
2019-04-25T06:34:47.696Z,15.40
2019-04-25T06:37:17.697Z,15.40
2019-04-25T06:39:48.428Z,15.50
2019-04-25T06:42:24.585Z,15.60
2019-04-25T06:44:55.242Z,15.70
2019-04-25T06:47:49.197Z,15.80
2019-04-25T06:50:23.075Z,15.90
2019-04-25T06:52:56.153Z,16.00
2019-04-25T06:55:37.663Z,16.20
2019-04-25T06:58:12.084Z,16.20
2019-04-25T07:00:41.310Z,16.40
2019-04-25T07:03:09.881Z,16.50
2019-04-25T07:05:40.544Z,16.50
2019-04-25T07:08:10.285Z,16.70
2019-04-25T07:10:39.037Z,16.90
2019-04-25T07:13:14.259Z,16.90
2019-04-25T07:15:44.028Z,17.00
2019-04-25T07:18:14.004Z,17.20
2019-04-25T07:20:53.273Z,17.30
2019-04-25T07:23:21.378Z,17.30
2019-04-25T07:25:55.299Z,17.50
2019-04-25T07:28:29.762Z,17.50
2019-04-25T07:31:10.520Z,17.50
2019-04-25T07:33:50.185Z,17.50
2019-04-25T07:36:20.347Z,17.40
2019-04-25T07:39:03.298Z,17.40
2019-04-25T07:41:30.287Z,17.50
2019-04-25T07:44:01.135Z,17.60
2019-04-25T07:46:29.957Z,17.80
2019-04-25T07:49:03.370Z,17.80
2019-04-25T07:51:35.557Z,18.00
2019-04-25T07:54:05.123Z,18.20
2019-04-25T07:56:35.234Z,18.40
2019-04-25T07:59:06.197Z,18.50
2019-04-25T08:01:37.482Z,18.60
2019-04-25T08:04:06.322Z,18.70
2019-04-25T08:06:35.756Z,18.90
2019-04-25T08:09:11.312Z,19.10
2019-04-25T08:11:40.610Z,19.20
2019-04-25T08:14:24.168Z,19.30
2019-04-25T08:16:57.752Z,19.40
2019-04-25T08:19:26.688Z,19.50
2019-04-25T08:21:56.856Z,19.60
2019-04-25T08:24:25.576Z,19.70
2019-04-25T08:27:01.223Z,19.70
2019-04-25T08:29:41.223Z,19.80
2019-04-25T08:32:25.356Z,20.00
2019-04-25T08:34:55.955Z,20.10
2019-04-25T08:37:24.798Z,20.10
2019-04-25T08:39:53.870Z,20.20
2019-04-25T08:42:24.159Z,20.30
2019-04-25T08:45:17.791Z,20.40
2019-04-25T08:47:46.269Z,20.50
2019-04-25T08:50:26.896Z,20.60
2019-04-25T08:53:07.696Z,20.70
2019-04-25T08:55:41.732Z,20.70
2019-04-25T08:58:34.480Z,20.70
2019-04-25T09:01:10.725Z,20.70
2019-04-25T09:04:03.565Z,20.90
2019-04-25T09:06:33.304Z,21.00
2019-04-25T09:09:03.757Z,21.20
2019-04-25T09:11:34.834Z,21.30
2019-04-25T09:14:03.702Z,21.40
2019-04-25T09:16:34.514Z,21.50
2019-04-25T09:19:04.603Z,21.60
2019-04-25T09:21:34.648Z,21.70
2019-04-25T09:24:04.085Z,21.80
2019-04-25T09:26:35.032Z,21.80
2019-04-25T09:29:16.809Z,21.70
2019-04-25T09:31:40.185Z,21.80
2019-04-25T09:34:10.753Z,21.70
2019-04-25T09:36:39.949Z,21.80
2019-04-25T09:39:13.801Z,21.90
2019-04-25T09:41:44.155Z,22.00
2019-04-25T09:44:14.940Z,22.00
2019-04-25T09:46:46.523Z,22.00
2019-04-25T09:49:15.829Z,22.00
2019-04-25T09:51:53.478Z,22.20
2019-04-25T09:54:26.697Z,22.30
2019-04-25T09:56:59.798Z,22.50
2019-04-25T09:59:30.134Z,22.80
2019-04-25T10:01:59.072Z,23.10
2019-04-25T10:04:27.825Z,23.30
2019-04-25T10:06:56.652Z,23.40
2019-04-25T10:09:25.959Z,23.50
2019-04-25T10:11:55.544Z,23.70
2019-04-25T10:14:54.278Z,23.60
2019-04-25T10:17:23.755Z,23.70
2019-04-25T10:19:52.541Z,23.80
2019-04-25T10:22:21.372Z,23.70
2019-04-25T10:24:59.051Z,23.60
2019-04-25T10:27:20.599Z,23.60
2019-04-25T10:29:53.599Z,23.90
2019-04-25T10:32:19.749Z,24.20
2019-04-25T10:34:49.018Z,24.50
2019-04-25T10:37:17.919Z,24.70
2019-04-25T10:39:46.650Z,24.90
2019-04-25T10:42:15.818Z,24.90
2019-04-25T10:44:46.119Z,25.00
2019-04-25T10:47:15.091Z,24.90
2019-04-25T10:49:44.957Z,25.10
2019-04-25T10:52:15.666Z,25.20
2019-04-25T10:54:45.781Z,25.10
2019-04-25T10:57:15.501Z,25.10
2019-04-25T10:59:57.885Z,25.00
2019-04-25T11:02:15.297Z,25.00
2019-04-25T11:04:48.245Z,25.00
2019-04-25T11:07:16.212Z,25.10
2019-04-25T11:09:45.567Z,25.00
2019-04-25T11:12:15.969Z,25.10
2019-04-25T11:14:44.737Z,25.00
2019-04-25T11:17:15.476Z,25.10
2019-04-25T11:19:44.582Z,25.00
2019-04-25T11:22:15.496Z,25.10
2019-04-25T11:24:43.956Z,25.20
2019-04-25T11:27:13.529Z,25.40
2019-04-25T11:29:43.189Z,25.60
2019-04-25T11:32:13.599Z,26.00
2019-04-25T11:34:46.069Z,26.00
2019-04-25T11:37:14.707Z,26.20
2019-04-25T11:40:00.586Z,26.10
2019-04-25T11:42:29.414Z,26.10
2019-04-25T11:44:58.209Z,26.10
2019-04-25T11:47:27.314Z,26.10
2019-04-25T11:49:56.148Z,26.00
2019-04-25T11:52:29.531Z,26.10
2019-04-25T11:54:55.790Z,25.90
2019-04-25T11:57:24.633Z,25.90
2019-04-25T11:59:54.609Z,25.90
2019-04-25T12:02:25.040Z,25.90
2019-04-25T12:04:54.985Z,25.80
2019-04-25T12:07:24.081Z,25.60
2019-04-25T12:09:54.531Z,25.40
2019-04-25T12:12:23.694Z,25.30
2019-04-25T12:14:54.007Z,25.40
2019-04-25T12:17:23.437Z,25.40
2019-04-25T12:19:54.600Z,25.30
2019-04-25T12:22:23.838Z,25.20
2019-04-25T12:24:54.337Z,25.00
2019-04-25T12:27:23.130Z,25.00
2019-04-25T12:29:52.433Z,25.20
2019-04-25T12:32:21.670Z,25.20
2019-04-25T12:34:51.542Z,25.20
2019-04-25T12:37:20.441Z,25.00
2019-04-25T12:39:49.178Z,25.10
2019-04-25T12:42:18.025Z,25.00
2019-04-25T12:44:51.368Z,25.00
2019-04-25T12:47:30.869Z,24.90
2019-04-25T12:49:59.713Z,24.90
2019-04-25T12:52:28.477Z,25.00
2019-04-25T12:54:58.168Z,24.90
2019-04-25T12:57:28.614Z,24.70
2019-04-25T12:59:57.622Z,24.70
2019-04-25T13:02:26.676Z,24.70
2019-04-25T13:04:55.580Z,24.70
2019-04-25T13:07:24.353Z,24.60
2019-04-25T13:09:53.712Z,24.80
2019-04-25T13:12:23.393Z,24.80
2019-04-25T13:14:52.657Z,24.90
2019-04-25T13:17:21.464Z,24.80
2019-04-25T13:19:50.263Z,24.80
2019-04-25T13:22:19.564Z,24.70
2019-04-25T13:24:48.382Z,24.70
2019-04-25T13:27:24.765Z,24.70
2019-04-25T13:29:58.775Z,24.70
2019-04-25T13:32:41.445Z,24.60
2019-04-25T13:35:13.550Z,24.70
2019-04-25T13:37:43.918Z,24.90
2019-04-25T13:40:13.221Z,24.90
2019-04-25T13:42:43.192Z,24.90
2019-04-25T13:45:14.314Z,25.00
2019-04-25T13:47:43.309Z,25.20
2019-04-25T13:50:14.474Z,25.30
2019-04-25T13:52:43.359Z,25.30
2019-04-25T13:55:13.603Z,25.40
2019-04-25T13:57:42.528Z,25.50
2019-04-25T14:00:11.688Z,25.40
2019-04-25T14:02:40.421Z,25.30
2019-04-25T14:05:09.251Z,25.10
2019-04-25T14:07:38.017Z,25.00
2019-04-25T14:10:07.080Z,24.90
2019-04-25T14:12:35.904Z,24.80
2019-04-25T14:15:07.100Z,24.70
2019-04-25T14:17:38.186Z,24.70
2019-04-25T14:20:26.403Z,24.70
2019-04-25T14:22:55.324Z,24.60
2019-04-25T14:25:26.907Z,24.60
2019-04-25T14:27:55.189Z,24.60
2019-04-25T14:30:26.247Z,24.50
2019-04-25T14:32:55.121Z,24.40
2019-04-25T14:35:24.204Z,24.40
2019-04-25T14:37:53.934Z,24.50
2019-04-25T14:40:24.709Z,24.60
2019-04-25T14:42:53.389Z,24.90
2019-04-25T14:45:22.629Z,24.90
2019-04-25T14:47:51.469Z,24.80
2019-04-25T14:50:20.452Z,24.70
2019-04-25T14:52:49.232Z,24.70
2019-04-25T14:55:36.184Z,24.80
2019-04-25T14:58:06.584Z,24.70
2019-04-25T15:00:42.940Z,24.80
2019-04-25T15:04:18.836Z,24.80
2019-04-25T15:06:47.680Z,24.70
2019-04-25T15:09:16.681Z,24.70
2019-04-25T15:11:45.521Z,24.80
2019-04-25T15:14:14.254Z,25.00
2019-04-25T15:16:43.116Z,25.20
2019-04-25T15:19:11.921Z,25.40
2019-04-25T15:21:40.760Z,25.50
2019-04-25T15:24:09.896Z,25.50
2019-04-25T15:26:40.341Z,25.50
2019-04-25T15:29:14.005Z,25.30
2019-04-25T15:31:55.231Z,25.20
2019-04-25T15:34:25.965Z,25.00
2019-04-25T15:37:15.768Z,24.80
2019-04-25T15:39:56.554Z,24.60
2019-04-25T15:42:35.113Z,24.50
2019-04-25T15:45:09.476Z,24.20
2019-04-25T15:47:38.316Z,24.20
2019-04-25T15:50:07.220Z,24.20
2019-04-25T15:52:36.083Z,24.10
2019-04-25T15:55:07.522Z,24.10
2019-04-25T15:57:36.307Z,24.00
2019-04-25T16:00:08.097Z,23.80
2019-04-25T16:02:41.152Z,23.80
2019-04-25T16:05:14.087Z,23.70
2019-04-25T16:07:44.781Z,23.60
2019-04-25T16:10:15.857Z,23.60
2019-04-25T16:12:46.194Z,23.60
2019-04-25T16:15:16.220Z,23.60
2019-04-25T16:17:45.045Z,23.50
2019-04-25T16:20:14.082Z,23.50
2019-04-25T16:22:50.375Z,23.50
2019-04-25T16:25:23.178Z,23.50
2019-04-25T16:27:51.871Z,23.50
2019-04-25T16:30:22.620Z,23.50
2019-04-25T16:32:51.365Z,23.50
2019-04-25T16:35:25.982Z,23.40
2019-04-25T16:37:55.868Z,23.40
2019-04-25T16:40:24.996Z,23.30
2019-04-25T16:42:55.158Z,23.30
2019-04-25T16:45:25.736Z,23.30
2019-04-25T16:47:59.100Z,23.20
2019-04-25T16:50:29.014Z,23.10
2019-04-25T16:52:58.968Z,23.10
2019-04-25T16:55:27.905Z,23.10
2019-04-25T16:57:56.633Z,23.10
2019-04-25T17:00:45.098Z,23.20
2019-04-25T17:03:14.793Z,23.10
2019-04-25T17:05:43.826Z,22.90
2019-04-25T17:08:12.944Z,22.70
2019-04-25T17:10:41.734Z,22.50
2019-04-25T17:13:18.337Z,22.40
2019-04-25T17:15:58.819Z,22.30
2019-04-25T17:18:40.248Z,22.10
2019-04-25T17:21:26.701Z,21.90
2019-04-25T17:23:55.484Z,21.90
2019-04-25T17:26:24.932Z,21.90
2019-04-25T17:28:57.238Z,21.70
2019-04-25T17:31:32.428Z,21.60
2019-04-25T17:34:20.743Z,21.40
2019-04-25T17:36:52.001Z,21.20
2019-04-25T17:39:42.126Z,21.10
2019-04-25T17:42:16.251Z,21.00
2019-04-25T17:44:45.085Z,20.90
2019-04-25T17:47:13.926Z,20.80
2019-04-25T17:49:42.661Z,20.80
2019-04-25T17:52:11.537Z,20.60
2019-04-25T17:54:44.953Z,20.50
2019-04-25T17:57:24.919Z,20.50
2019-04-25T17:59:53.621Z,20.30
2019-04-25T18:02:26.257Z,20.20
2019-04-25T18:04:54.984Z,20.20
2019-04-25T18:07:24.238Z,20.00
2019-04-25T18:09:54.658Z,19.90
2019-04-25T18:12:23.578Z,19.80
2019-04-25T18:14:58.261Z,19.80
2019-04-25T18:17:33.921Z,19.60
2019-04-25T18:20:20.846Z,19.60
2019-04-25T18:22:58.541Z,19.60
2019-04-25T18:25:52.395Z,19.50
2019-04-25T18:28:29.657Z,19.40
2019-04-25T18:30:59.596Z,19.40
2019-04-25T18:33:28.952Z,19.30
2019-04-25T18:36:12.253Z,19.20
2019-04-25T18:39:00.845Z,19.20
2019-04-25T18:41:43.896Z,19.10
2019-04-25T18:44:14.029Z,19.10
2019-04-25T18:46:47.302Z,19.10
2019-04-25T18:49:21.801Z,19.00
2019-04-25T18:51:58.110Z,19.00
2019-04-25T18:57:22.781Z,18.90
2019-04-25T18:59:53.788Z,18.90
2019-04-25T19:02:31.082Z,18.90
2019-04-25T19:05:09.422Z,18.90
2019-04-25T19:07:44.059Z,18.90
2019-04-25T19:10:15.808Z,18.90
2019-04-25T19:12:45.741Z,18.80
2019-04-25T19:15:18.071Z,18.80
2019-04-25T19:17:50.103Z,18.80
2019-04-25T19:20:21.069Z,18.90
2019-04-25T19:22:52.646Z,18.90
2019-04-25T19:25:25.987Z,18.80
2019-04-25T19:28:05.070Z,18.70
2019-04-25T19:30:33.869Z,18.70
2019-04-25T19:33:09.316Z,18.60
2019-04-25T19:35:39.529Z,18.60
2019-04-25T19:38:09.178Z,18.60
2019-04-25T19:40:44.013Z,18.60
2019-04-25T19:43:20.452Z,18.60
2019-04-25T19:46:05.779Z,18.50
2019-04-25T19:48:34.457Z,18.50
2019-04-25T19:51:03.539Z,18.40
2019-04-25T19:53:45.889Z,18.50
2019-04-25T19:56:18.052Z,18.40
2019-04-25T19:58:48.617Z,18.50
2019-04-25T20:01:17.853Z,18.40
2019-04-25T20:03:55.457Z,18.50
2019-04-25T20:06:51.560Z,18.40
2019-04-25T20:09:37.770Z,18.40
2019-04-25T20:12:07.425Z,18.40
2019-04-25T20:14:36.189Z,18.30
2019-04-25T20:17:06.906Z,18.20
2019-04-25T20:19:41.119Z,18.20
2019-04-25T20:22:15.664Z,18.20
2019-04-25T20:24:48.671Z,18.10
2019-04-25T20:27:21.503Z,18.10
2019-04-25T20:29:52.621Z,18.10
2019-04-25T20:32:35.394Z,18.00
2019-04-25T20:35:13.318Z,17.90
2019-04-25T20:40:25.128Z,17.90
2019-04-25T20:42:56.232Z,17.80
2019-04-25T20:45:39.177Z,17.70
2019-04-25T20:48:10.608Z,17.70
2019-04-25T20:50:44.962Z,17.60
2019-04-25T20:53:16.477Z,17.60
2019-04-25T20:55:48.756Z,17.60
2019-04-25T20:58:24.865Z,17.60
2019-04-25T21:00:55.928Z,17.60
2019-04-25T21:03:24.702Z,17.60
2019-04-25T21:05:58.189Z,17.60
2019-04-25T21:08:26.973Z,17.50
2019-04-25T21:10:55.857Z,17.40
2019-04-25T21:13:36.088Z,17.40
2019-04-25T21:16:06.479Z,17.30
2019-04-25T21:18:39.961Z,17.10
2019-04-25T21:21:08.733Z,17.00
2019-04-25T21:23:37.464Z,16.90
2019-04-25T21:26:06.391Z,16.90
2019-04-25T21:28:35.209Z,16.80
2019-04-25T21:31:04.088Z,16.70
2019-04-25T21:33:32.896Z,16.70
2019-04-25T21:36:02.061Z,16.70
2019-04-25T21:38:31.260Z,16.60
2019-04-25T21:41:04.767Z,16.60
2019-04-25T21:43:35.337Z,16.70
2019-04-25T21:46:04.513Z,16.60
2019-04-25T21:48:33.655Z,16.70
2019-04-25T21:51:04.358Z,16.60
2019-04-25T21:53:33.089Z,16.70
2019-04-25T21:56:02.217Z,16.80
2019-04-25T21:58:30.944Z,16.80
2019-04-25T22:01:02.383Z,16.80
2019-04-25T22:03:32.215Z,16.80
2019-04-25T22:06:01.157Z,16.80
2019-04-25T22:08:29.965Z,16.80
2019-04-25T22:10:59.920Z,16.80
2019-04-25T22:13:30.353Z,16.80
2019-04-25T22:15:59.691Z,16.80
2019-04-25T22:18:28.825Z,16.80
2019-04-25T22:20:58.292Z,16.80
2019-04-25T22:23:27.221Z,16.80
2019-04-25T22:25:56.297Z,16.90
2019-04-25T22:28:25.502Z,16.90
2019-04-25T22:30:57.713Z,16.90
2019-04-25T22:33:44.785Z,16.90
2019-04-25T22:36:21.533Z,16.90
2019-04-25T22:39:08.687Z,16.90
2019-04-25T22:41:49.144Z,16.90
2019-04-25T22:44:19.760Z,16.90
2019-04-25T22:46:48.901Z,16.90
2019-04-25T22:49:17.625Z,16.80
2019-04-25T22:51:46.424Z,16.70
2019-04-25T22:54:15.560Z,16.60
2019-04-25T22:56:44.293Z,16.50
2019-04-25T22:59:13.357Z,16.50
2019-04-25T23:01:53.035Z,16.40
2019-04-25T23:04:23.431Z,16.40
2019-04-25T23:06:52.242Z,16.30
2019-04-25T23:09:21.080Z,16.20
2019-04-25T23:11:50.112Z,16.20
2019-04-25T23:14:19.368Z,16.10
2019-04-25T23:16:48.204Z,16.10
2019-04-25T23:19:16.968Z,16.00
2019-04-25T23:21:46.056Z,16.00
2019-04-25T23:24:16.494Z,15.90
2019-04-25T23:27:06.287Z,15.90
2019-04-25T23:29:35.192Z,15.90
2019-04-25T23:32:04.057Z,15.90
2019-04-25T23:34:33.185Z,15.90
2019-04-25T23:37:02.025Z,15.80
2019-04-25T23:39:31.089Z,15.80
2019-04-25T23:41:59.824Z,15.80
2019-04-25T23:44:28.588Z,15.80
2019-04-25T23:46:57.616Z,15.80
2019-04-25T23:49:26.384Z,15.80
2019-04-25T23:51:55.489Z,15.80
2019-04-25T23:54:24.248Z,15.70
2019-04-25T23:56:52.977Z,15.60
2019-04-25T23:59:21.745Z,15.60
